KBWG/BWG METAR and TAF weather

Enter ICAO airport designator
Station Type Date Time Source
KBWG METAR 2020/10/20 16:53 UTC NOAA

KBWG 201653Z AUTO 19009KT 10SM FEW034 SCT041 BKN100 23/17 A3017 RMK AO2 SLP212 T02330172


Station Type Date Time Source
KBWG Decoded METAR 2020/10/20 16:53 UTC NOAA

BOWLING GREEN-WARREN CO RGNL, KY, United States (KBWG) 36-58N 086-25W 161M
Oct 20, 2020 - 12:53 PM EDT / 2020.10.20 1653 UTC
Wind: from the S (190 degrees) at 10 MPH (9 KT):0
Visibility: 10 mile(s):0
Sky conditions: mostly cloudy
Temperature: 73.9 F (23.3 C)
Dew Point: 63.0 F (17.2 C)
Relative Humidity: 68%
Pressure (altimeter): 30.17 in. Hg (1021 hPa)
ob: KBWG 201653Z AUTO 19009KT 10SM FEW034 SCT041 BKN100 23/17 A3017 RMK AO2 SLP212 T02330172
cycle: 17

Station Type Date Time Source
KBWG TAF 2020/10/20 18:30 UTC NOAA

TAF KBWG 201728Z 2018/2118 20008KT P6SM SCT040 BKN100
FM210300 18005KT P6SM FEW050 FEW250

Example: see airport list